sensor_id;sensor_type;location;lat;lon;timestamp;P1;durP1;ratioP1;P2;durP2;ratioP2
50683;SDS011;36654;45.042;38.994;2023-05-19T00:00:41;14.85;;;8.48;;
50683;SDS011;36654;45.042;38.994;2023-05-19T00:03:09;12.00;;;7.85;;
50683;SDS011;36654;45.042;38.994;2023-05-19T00:05:38;14.18;;;8.70;;
50683;SDS011;36654;45.042;38.994;2023-05-19T00:08:09;14.23;;;8.35;;
50683;SDS011;36654;45.042;38.994;2023-05-19T00:10:36;12.80;;;8.10;;
50683;SDS011;36654;45.042;38.994;2023-05-19T00:13:02;12.60;;;7.78;;
50683;SDS011;36654;45.042;38.994;2023-05-19T00:15:28;13.13;;;8.30;;
50683;SDS011;36654;45.042;38.994;2023-05-19T00:17:54;16.98;;;9.25;;
50683;SDS011;36654;45.042;38.994;2023-05-19T00:20:20;15.10;;;9.40;;
50683;SDS011;36654;45.042;38.994;2023-05-19T00:22:46;13.98;;;8.45;;
50683;SDS011;36654;45.042;38.994;2023-05-19T00:25:12;18.65;;;9.30;;
50683;SDS011;36654;45.042;38.994;2023-05-19T00:27:38;13.30;;;8.02;;
50683;SDS011;36654;45.042;38.994;2023-05-19T00:30:04;15.75;;;7.93;;
50683;SDS011;36654;45.042;38.994;2023-05-19T00:32:30;13.57;;;9.23;;
50683;SDS011;36654;45.042;38.994;2023-05-19T00:34:56;14.30;;;9.18;;
50683;SDS011;36654;45.042;38.994;2023-05-19T00:37:22;15.55;;;9.20;;
50683;SDS011;36654;45.042;38.994;2023-05-19T00:39:48;16.90;;;9.55;;
50683;SDS011;36654;45.042;38.994;2023-05-19T00:42:14;12.68;;;9.45;;
50683;SDS011;36654;45.042;38.994;2023-05-19T00:44:40;13.80;;;8.70;;
50683;SDS011;36654;45.042;38.994;2023-05-19T00:47:06;16.77;;;8.98;;
50683;SDS011;36654;45.042;38.994;2023-05-19T00:49:32;16.92;;;9.85;;
50683;SDS011;36654;45.042;38.994;2023-05-19T00:51:59;13.80;;;8.38;;
50683;SDS011;36654;45.042;38.994;2023-05-19T00:54:26;12.43;;;8.68;;
50683;SDS011;36654;45.042;38.994;2023-05-19T00:56:55;14.45;;;8.88;;
50683;SDS011;36654;45.042;38.994;2023-05-19T00:59:23;13.93;;;9.50;;
50683;SDS011;36654;45.042;38.994;2023-05-19T01:01:48;14.68;;;8.85;;
50683;SDS011;36654;45.042;38.994;2023-05-19T01:04:17;14.80;;;8.65;;
50683;SDS011;36654;45.042;38.994;2023-05-19T01:06:45;16.35;;;8.48;;
50683;SDS011;36654;45.042;38.994;2023-05-19T01:09:12;14.88;;;8.93;;
50683;SDS011;36654;45.042;38.994;2023-05-19T01:11:37;13.48;;;8.40;;
50683;SDS011;36654;45.042;38.994;2023-05-19T01:14:03;14.95;;;9.00;;
50683;SDS011;36654;45.042;38.994;2023-05-19T01:28:02;15.45;;;8.43;;
50683;SDS011;36654;45.042;38.994;2023-05-19T01:30:37;12.70;;;8.80;;
50683;SDS011;36654;45.042;38.994;2023-05-19T01:33:08;14.68;;;8.15;;
50683;SDS011;36654;45.042;38.994;2023-05-19T01:35:38;17.13;;;9.13;;
50683;SDS011;36654;45.042;38.994;2023-05-19T01:38:09;15.00;;;8.25;;
50683;SDS011;36654;45.042;38.994;2023-05-19T01:40:39;11.88;;;7.93;;
50683;SDS011;36654;45.042;38.994;2023-05-19T01:43:06;14.60;;;9.05;;
50683;SDS011;36654;45.042;38.994;2023-05-19T01:45:33;17.30;;;8.82;;
50683;SDS011;36654;45.042;38.994;2023-05-19T01:48:00;11.20;;;7.55;;
50683;SDS011;36654;45.042;38.994;2023-05-19T01:50:28;14.30;;;8.25;;
50683;SDS011;36654;45.042;38.994;2023-05-19T01:52:54;15.70;;;8.52;;
50683;SDS011;36654;45.042;38.994;2023-05-19T01:55:20;12.73;;;8.80;;
50683;SDS011;36654;45.042;38.994;2023-05-19T01:57:53;13.02;;;8.18;;
50683;SDS011;36654;45.042;38.994;2023-05-19T02:03:31;12.55;;;7.90;;
50683;SDS011;36654;45.042;38.994;2023-05-19T02:09:22;13.45;;;7.28;;
50683;SDS011;36654;45.042;38.994;2023-05-19T02:12:02;15.27;;;8.20;;
50683;SDS011;36654;45.042;38.994;2023-05-19T02:14:48;11.43;;;7.50;;
50683;SDS011;36654;45.042;38.994;2023-05-19T02:17:15;14.32;;;8.20;;
50683;SDS011;36654;45.042;38.994;2023-05-19T02:19:42;16.08;;;7.78;;
50683;SDS011;36654;45.042;38.994;2023-05-19T02:22:08;16.27;;;8.52;;
50683;SDS011;36654;45.042;38.994;2023-05-19T02:24:34;18.67;;;8.77;;
50683;SDS011;36654;45.042;38.994;2023-05-19T02:27:01;13.35;;;8.00;;
50683;SDS011;36654;45.042;38.994;2023-05-19T02:29:27;15.93;;;8.18;;
50683;SDS011;36654;45.042;38.994;2023-05-19T02:31:53;17.02;;;8.75;;
50683;SDS011;36654;45.042;38.994;2023-05-19T02:34:19;13.95;;;8.95;;
50683;SDS011;36654;45.042;38.994;2023-05-19T02:36:45;15.23;;;8.57;;
50683;SDS011;36654;45.042;38.994;2023-05-19T02:39:13;13.63;;;8.48;;
50683;SDS011;36654;45.042;38.994;2023-05-19T02:41:40;12.65;;;8.65;;
50683;SDS011;36654;45.042;38.994;2023-05-19T02:44:05;25.63;;;9.75;;
50683;SDS011;36654;45.042;38.994;2023-05-19T02:46:31;11.40;;;7.38;;
50683;SDS011;36654;45.042;38.994;2023-05-19T02:48:57;11.73;;;8.45;;
50683;SDS011;36654;45.042;38.994;2023-05-19T02:51:23;12.18;;;8.18;;
50683;SDS011;36654;45.042;38.994;2023-05-19T02:53:49;15.88;;;8.88;;
50683;SDS011;36654;45.042;38.994;2023-05-19T02:56:14;15.63;;;8.27;;
50683;SDS011;36654;45.042;38.994;2023-05-19T02:58:40;13.35;;;8.45;;
50683;SDS011;36654;45.042;38.994;2023-05-19T03:01:07;16.95;;;8.82;;
50683;SDS011;36654;45.042;38.994;2023-05-19T03:03:33;12.73;;;8.32;;
50683;SDS011;36654;45.042;38.994;2023-05-19T03:05:59;16.92;;;9.50;;
50683;SDS011;36654;45.042;38.994;2023-05-19T03:08:26;10.90;;;8.10;;
50683;SDS011;36654;45.042;38.994;2023-05-19T03:10:52;14.50;;;9.27;;
50683;SDS011;36654;45.042;38.994;2023-05-19T03:13:17;19.17;;;9.48;;
50683;SDS011;36654;45.042;38.994;2023-05-19T03:15:43;17.80;;;8.30;;
50683;SDS011;36654;45.042;38.994;2023-05-19T03:18:09;15.05;;;8.40;;
50683;SDS011;36654;45.042;38.994;2023-05-19T03:20:36;12.07;;;8.23;;
50683;SDS011;36654;45.042;38.994;2023-05-19T03:23:02;12.88;;;8.75;;
50683;SDS011;36654;45.042;38.994;2023-05-19T03:25:28;14.27;;;7.88;;
50683;SDS011;36654;45.042;38.994;2023-05-19T03:27:54;17.60;;;7.78;;
50683;SDS011;36654;45.042;38.994;2023-05-19T03:30:20;10.23;;;7.75;;
50683;SDS011;36654;45.042;38.994;2023-05-19T03:32:46;14.27;;;8.50;;
50683;SDS011;36654;45.042;38.994;2023-05-19T03:35:11;12.90;;;7.38;;
50683;SDS011;36654;45.042;38.994;2023-05-19T03:37:37;11.23;;;7.47;;
50683;SDS011;36654;45.042;38.994;2023-05-19T03:40:03;16.02;;;7.55;;
50683;SDS011;36654;45.042;38.994;2023-05-19T03:42:30;11.18;;;7.80;;
50683;SDS011;36654;45.042;38.994;2023-05-19T03:44:55;19.15;;;7.57;;
50683;SDS011;36654;45.042;38.994;2023-05-19T03:47:21;14.70;;;8.18;;
50683;SDS011;36654;45.042;38.994;2023-05-19T03:49:46;11.57;;;8.20;;
50683;SDS011;36654;45.042;38.994;2023-05-19T03:52:12;14.73;;;8.00;;
50683;SDS011;36654;45.042;38.994;2023-05-19T03:54:38;9.95;;;7.53;;
50683;SDS011;36654;45.042;38.994;2023-05-19T03:57:04;13.80;;;7.38;;
50683;SDS011;36654;45.042;38.994;2023-05-19T03:59:30;14.13;;;8.70;;
50683;SDS011;36654;45.042;38.994;2023-05-19T04:01:56;14.13;;;7.55;;
50683;SDS011;36654;45.042;38.994;2023-05-19T04:04:22;18.98;;;7.80;;
50683;SDS011;36654;45.042;38.994;2023-05-19T04:06:47;12.50;;;7.53;;
50683;SDS011;36654;45.042;38.994;2023-05-19T04:09:13;11.38;;;7.55;;
50683;SDS011;36654;45.042;38.994;2023-05-19T04:11:40;15.13;;;7.13;;
50683;SDS011;36654;45.042;38.994;2023-05-19T04:14:06;13.40;;;7.78;;
50683;SDS011;36654;45.042;38.994;2023-05-19T04:16:33;14.32;;;6.82;;
50683;SDS011;36654;45.042;38.994;2023-05-19T04:18:59;13.40;;;7.55;;
50683;SDS011;36654;45.042;38.994;2023-05-19T04:21:24;15.77;;;8.43;;
50683;SDS011;36654;45.042;38.994;2023-05-19T04:23:50;11.40;;;7.15;;
50683;SDS011;36654;45.042;38.994;2023-05-19T04:26:16;16.38;;;8.77;;
50683;SDS011;36654;45.042;38.994;2023-05-19T04:28:43;17.25;;;7.82;;
50683;SDS011;36654;45.042;38.994;2023-05-19T04:31:09;17.67;;;7.75;;
50683;SDS011;36654;45.042;38.994;2023-05-19T04:33:37;12.43;;;8.38;;
50683;SDS011;36654;45.042;38.994;2023-05-19T04:36:03;12.02;;;7.60;;
50683;SDS011;36654;45.042;38.994;2023-05-19T04:38:34;13.75;;;7.53;;
50683;SDS011;36654;45.042;38.994;2023-05-19T04:41:01;15.82;;;8.63;;
50683;SDS011;36654;45.042;38.994;2023-05-19T04:43:30;14.15;;;7.65;;
50683;SDS011;36654;45.042;38.994;2023-05-19T04:45:56;14.38;;;7.55;;
50683;SDS011;36654;45.042;38.994;2023-05-19T04:48:22;11.50;;;7.90;;
50683;SDS011;36654;45.042;38.994;2023-05-19T04:50:48;18.10;;;8.60;;
50683;SDS011;36654;45.042;38.994;2023-05-19T04:53:16;15.55;;;7.75;;
50683;SDS011;36654;45.042;38.994;2023-05-19T04:55:42;13.73;;;8.70;;
50683;SDS011;36654;45.042;38.994;2023-05-19T04:58:08;14.82;;;7.38;;
50683;SDS011;36654;45.042;38.994;2023-05-19T05:00:35;18.25;;;9.18;;
50683;SDS011;36654;45.042;38.994;2023-05-19T05:03:01;12.45;;;7.15;;
50683;SDS011;36654;45.042;38.994;2023-05-19T05:05:30;15.85;;;8.27;;
50683;SDS011;36654;45.042;38.994;2023-05-19T05:07:56;11.52;;;7.15;;
50683;SDS011;36654;45.042;38.994;2023-05-19T05:10:22;13.75;;;6.80;;
50683;SDS011;36654;45.042;38.994;2023-05-19T05:12:48;12.35;;;7.63;;
50683;SDS011;36654;45.042;38.994;2023-05-19T05:15:14;12.10;;;7.93;;
50683;SDS011;36654;45.042;38.994;2023-05-19T05:17:40;18.95;;;7.50;;
50683;SDS011;36654;45.042;38.994;2023-05-19T05:20:07;16.25;;;6.80;;
50683;SDS011;36654;45.042;38.994;2023-05-19T05:22:34;15.98;;;7.45;;
50683;SDS011;36654;45.042;38.994;2023-05-19T05:25:00;20.77;;;10.25;;
50683;SDS011;36654;45.042;38.994;2023-05-19T05:27:26;15.70;;;7.25;;
50683;SDS011;36654;45.042;38.994;2023-05-19T05:29:52;16.98;;;8.10;;
50683;SDS011;36654;45.042;38.994;2023-05-19T05:32:18;15.55;;;7.30;;
50683;SDS011;36654;45.042;38.994;2023-05-19T05:34:43;14.00;;;6.45;;
50683;SDS011;36654;45.042;38.994;2023-05-19T05:37:10;16.35;;;6.60;;
50683;SDS011;36654;45.042;38.994;2023-05-19T05:39:35;21.67;;;8.32;;
50683;SDS011;36654;45.042;38.994;2023-05-19T05:42:01;9.30;;;5.85;;
50683;SDS011;36654;45.042;38.994;2023-05-19T05:44:29;15.50;;;7.53;;
50683;SDS011;36654;45.042;38.994;2023-05-19T05:46:55;12.32;;;6.78;;
50683;SDS011;36654;45.042;38.994;2023-05-19T05:49:21;17.13;;;7.93;;
50683;SDS011;36654;45.042;38.994;2023-05-19T05:51:46;16.77;;;6.53;;
50683;SDS011;36654;45.042;38.994;2023-05-19T05:54:12;19.40;;;9.40;;
50683;SDS011;36654;45.042;38.994;2023-05-19T05:56:42;13.07;;;7.35;;
50683;SDS011;36654;45.042;38.994;2023-05-19T05:59:08;14.48;;;7.63;;
50683;SDS011;36654;45.042;38.994;2023-05-19T06:01:34;11.85;;;6.72;;
50683;SDS011;36654;45.042;38.994;2023-05-19T06:04:00;18.67;;;6.45;;
50683;SDS011;36654;45.042;38.994;2023-05-19T06:06:26;13.65;;;7.32;;
50683;SDS011;36654;45.042;38.994;2023-05-19T06:08:52;13.05;;;6.65;;
50683;SDS011;36654;45.042;38.994;2023-05-19T06:11:17;13.13;;;6.50;;
50683;SDS011;36654;45.042;38.994;2023-05-19T06:13:43;14.75;;;6.65;;
50683;SDS011;36654;45.042;38.994;2023-05-19T06:16:09;13.10;;;7.07;;
50683;SDS011;36654;45.042;38.994;2023-05-19T06:18:34;15.65;;;6.38;;
50683;SDS011;36654;45.042;38.994;2023-05-19T06:21:00;15.68;;;6.95;;
50683;SDS011;36654;45.042;38.994;2023-05-19T06:23:27;16.02;;;6.43;;
50683;SDS011;36654;45.042;38.994;2023-05-19T06:25:54;14.68;;;7.22;;
50683;SDS011;36654;45.042;38.994;2023-05-19T06:28:20;21.67;;;7.50;;
50683;SDS011;36654;45.042;38.994;2023-05-19T06:30:46;17.40;;;6.50;;
50683;SDS011;36654;45.042;38.994;2023-05-19T06:33:12;15.35;;;7.40;;
50683;SDS011;36654;45.042;38.994;2023-05-19T06:35:37;18.60;;;6.53;;
50683;SDS011;36654;45.042;38.994;2023-05-19T06:38:03;17.25;;;7.70;;
50683;SDS011;36654;45.042;38.994;2023-05-19T06:40:29;18.13;;;7.95;;
50683;SDS011;36654;45.042;38.994;2023-05-19T06:42:54;14.85;;;7.25;;
50683;SDS011;36654;45.042;38.994;2023-05-19T06:45:20;15.88;;;7.28;;
50683;SDS011;36654;45.042;38.994;2023-05-19T06:47:46;14.05;;;6.78;;
50683;SDS011;36654;45.042;38.994;2023-05-19T06:50:12;18.48;;;6.72;;
50683;SDS011;36654;45.042;38.994;2023-05-19T06:52:38;15.68;;;6.22;;
50683;SDS011;36654;45.042;38.994;2023-05-19T06:55:04;14.93;;;6.82;;
50683;SDS011;36654;45.042;38.994;2023-05-19T06:57:30;15.13;;;6.88;;
50683;SDS011;36654;45.042;38.994;2023-05-19T06:59:56;15.25;;;6.60;;
50683;SDS011;36654;45.042;38.994;2023-05-19T07:02:21;16.05;;;7.20;;
50683;SDS011;36654;45.042;38.994;2023-05-19T07:04:47;14.20;;;6.65;;
50683;SDS011;36654;45.042;38.994;2023-05-19T07:07:13;19.05;;;7.32;;
50683;SDS011;36654;45.042;38.994;2023-05-19T07:09:38;12.65;;;6.50;;
50683;SDS011;36654;45.042;38.994;2023-05-19T07:12:04;21.92;;;6.97;;
50683;SDS011;36654;45.042;38.994;2023-05-19T07:14:30;14.85;;;6.93;;
50683;SDS011;36654;45.042;38.994;2023-05-19T07:16:56;14.20;;;7.63;;
50683;SDS011;36654;45.042;38.994;2023-05-19T07:19:22;17.25;;;6.78;;
50683;SDS011;36654;45.042;38.994;2023-05-19T07:21:48;12.48;;;6.03;;
50683;SDS011;36654;45.042;38.994;2023-05-19T07:24:13;10.57;;;5.80;;
50683;SDS011;36654;45.042;38.994;2023-05-19T07:26:39;16.73;;;7.10;;
50683;SDS011;36654;45.042;38.994;2023-05-19T07:29:06;21.92;;;6.95;;
50683;SDS011;36654;45.042;38.994;2023-05-19T07:31:32;12.57;;;6.55;;
50683;SDS011;36654;45.042;38.994;2023-05-19T07:33:58;14.45;;;7.05;;
50683;SDS011;36654;45.042;38.994;2023-05-19T07:36:23;15.13;;;6.15;;
50683;SDS011;36654;45.042;38.994;2023-05-19T07:38:49;18.33;;;6.70;;
50683;SDS011;36654;45.042;38.994;2023-05-19T07:41:15;17.60;;;6.80;;
50683;SDS011;36654;45.042;38.994;2023-05-19T07:43:41;19.30;;;6.75;;
50683;SDS011;36654;45.042;38.994;2023-05-19T07:46:07;10.98;;;6.30;;
50683;SDS011;36654;45.042;38.994;2023-05-19T07:48:32;13.68;;;5.70;;
50683;SDS011;36654;45.042;38.994;2023-05-19T07:50:58;18.50;;;6.68;;
50683;SDS011;36654;45.042;38.994;2023-05-19T07:53:24;14.57;;;6.57;;
50683;SDS011;36654;45.042;38.994;2023-05-19T07:55:50;16.65;;;5.63;;
50683;SDS011;36654;45.042;38.994;2023-05-19T07:58:15;15.23;;;5.85;;
50683;SDS011;36654;45.042;38.994;2023-05-19T08:00:41;11.13;;;6.00;;
50683;SDS011;36654;45.042;38.994;2023-05-19T08:03:10;14.20;;;6.15;;
50683;SDS011;36654;45.042;38.994;2023-05-19T08:05:37;14.88;;;6.13;;
50683;SDS011;36654;45.042;38.994;2023-05-19T08:08:02;15.88;;;5.85;;
50683;SDS011;36654;45.042;38.994;2023-05-19T08:10:28;14.00;;;6.10;;
50683;SDS011;36654;45.042;38.994;2023-05-19T08:12:54;14.82;;;6.57;;
50683;SDS011;36654;45.042;38.994;2023-05-19T08:15:20;17.38;;;7.20;;
50683;SDS011;36654;45.042;38.994;2023-05-19T08:17:46;14.93;;;6.28;;
50683;SDS011;36654;45.042;38.994;2023-05-19T08:20:11;11.80;;;5.18;;
50683;SDS011;36654;45.042;38.994;2023-05-19T08:22:38;15.75;;;6.40;;
50683;SDS011;36654;45.042;38.994;2023-05-19T08:25:03;20.25;;;6.43;;
50683;SDS011;36654;45.042;38.994;2023-05-19T08:27:30;14.18;;;6.40;;
50683;SDS011;36654;45.042;38.994;2023-05-19T08:29:56;20.80;;;6.53;;
50683;SDS011;36654;45.042;38.994;2023-05-19T08:32:22;23.13;;;7.25;;
50683;SDS011;36654;45.042;38.994;2023-05-19T08:34:48;12.13;;;6.32;;
50683;SDS011;36654;45.042;38.994;2023-05-19T08:37:14;19.90;;;6.70;;
50683;SDS011;36654;45.042;38.994;2023-05-19T08:39:40;19.08;;;6.45;;
50683;SDS011;36654;45.042;38.994;2023-05-19T08:42:05;16.15;;;6.50;;
50683;SDS011;36654;45.042;38.994;2023-05-19T08:44:33;10.40;;;6.07;;
50683;SDS011;36654;45.042;38.994;2023-05-19T08:47:01;14.32;;;6.53;;
50683;SDS011;36654;45.042;38.994;2023-05-19T08:49:39;16.10;;;6.38;;
50683;SDS011;36654;45.042;38.994;2023-05-19T08:55:02;13.05;;;6.55;;
50683;SDS011;36654;45.042;38.994;2023-05-19T08:57:33;11.18;;;6.43;;
50683;SDS011;36654;45.042;38.994;2023-05-19T09:00:01;11.68;;;6.13;;
50683;SDS011;36654;45.042;38.994;2023-05-19T09:02:33;14.80;;;6.40;;
50683;SDS011;36654;45.042;38.994;2023-05-19T09:05:02;11.18;;;6.07;;
50683;SDS011;36654;45.042;38.994;2023-05-19T09:07:29;9.15;;;5.32;;
50683;SDS011;36654;45.042;38.994;2023-05-19T09:09:59;9.88;;;5.82;;
50683;SDS011;36654;45.042;38.994;2023-05-19T09:12:25;10.75;;;5.72;;
50683;SDS011;36654;45.042;38.994;2023-05-19T09:14:51;12.40;;;6.25;;
50683;SDS011;36654;45.042;38.994;2023-05-19T09:17:17;11.95;;;6.20;;
50683;SDS011;36654;45.042;38.994;2023-05-19T09:19:46;11.18;;;5.72;;
50683;SDS011;36654;45.042;38.994;2023-05-19T09:22:17;12.65;;;6.63;;
50683;SDS011;36654;45.042;38.994;2023-05-19T09:24:43;10.55;;;5.78;;
50683;SDS011;36654;45.042;38.994;2023-05-19T09:27:10;12.20;;;5.90;;
50683;SDS011;36654;45.042;38.994;2023-05-19T09:29:39;12.32;;;5.95;;
50683;SDS011;36654;45.042;38.994;2023-05-19T09:32:05;13.20;;;5.95;;
50683;SDS011;36654;45.042;38.994;2023-05-19T09:34:31;11.40;;;6.13;;
50683;SDS011;36654;45.042;38.994;2023-05-19T09:36:57;12.25;;;5.82;;
50683;SDS011;36654;45.042;38.994;2023-05-19T09:39:23;14.05;;;6.18;;
50683;SDS011;36654;45.042;38.994;2023-05-19T09:41:53;16.48;;;6.35;;
50683;SDS011;36654;45.042;38.994;2023-05-19T09:46:46;10.00;;;5.82;;
50683;SDS011;36654;45.042;38.994;2023-05-19T09:49:17;12.07;;;6.28;;
50683;SDS011;36654;45.042;38.994;2023-05-19T09:51:44;10.20;;;5.93;;
50683;SDS011;36654;45.042;38.994;2023-05-19T09:54:13;20.52;;;6.50;;
50683;SDS011;36654;45.042;38.994;2023-05-19T09:56:40;14.32;;;6.05;;
50683;SDS011;36654;45.042;38.994;2023-05-19T09:59:06;11.90;;;6.35;;
50683;SDS011;36654;45.042;38.994;2023-05-19T10:01:32;12.40;;;6.03;;
50683;SDS011;36654;45.042;38.994;2023-05-19T10:03:58;11.27;;;6.07;;
50683;SDS011;36654;45.042;38.994;2023-05-19T10:06:25;13.10;;;6.45;;
50683;SDS011;36654;45.042;38.994;2023-05-19T10:08:51;9.43;;;5.80;;
50683;SDS011;36654;45.042;38.994;2023-05-19T10:11:17;10.05;;;5.53;;
50683;SDS011;36654;45.042;38.994;2023-05-19T10:13:44;9.57;;;5.70;;
50683;SDS011;36654;45.042;38.994;2023-05-19T10:16:11;10.63;;;6.50;;
50683;SDS011;36654;45.042;38.994;2023-05-19T10:18:40;13.30;;;6.13;;
50683;SDS011;36654;45.042;38.994;2023-05-19T10:21:06;14.25;;;6.80;;
50683;SDS011;36654;45.042;38.994;2023-05-19T10:23:33;14.10;;;5.95;;
50683;SDS011;36654;45.042;38.994;2023-05-19T10:25:59;14.65;;;6.60;;
50683;SDS011;36654;45.042;38.994;2023-05-19T10:28:36;13.27;;;6.35;;
50683;SDS011;36654;45.042;38.994;2023-05-19T10:31:04;14.63;;;6.50;;
50683;SDS011;36654;45.042;38.994;2023-05-19T10:33:52;14.18;;;6.38;;
50683;SDS011;36654;45.042;38.994;2023-05-19T10:36:52;16.10;;;5.82;;
50683;SDS011;36654;45.042;38.994;2023-05-19T10:39:33;15.52;;;6.38;;
50683;SDS011;36654;45.042;38.994;2023-05-19T10:42:17;15.40;;;6.50;;
50683;SDS011;36654;45.042;38.994;2023-05-19T10:47:22;13.50;;;6.95;;
50683;SDS011;36654;45.042;38.994;2023-05-19T10:49:50;17.73;;;6.78;;
50683;SDS011;36654;45.042;38.994;2023-05-19T10:52:18;15.93;;;5.90;;
50683;SDS011;36654;45.042;38.994;2023-05-19T10:57:17;11.90;;;6.45;;
50683;SDS011;36654;45.042;38.994;2023-05-19T10:59:51;15.38;;;6.45;;
50683;SDS011;36654;45.042;38.994;2023-05-19T11:02:36;11.63;;;5.80;;
50683;SDS011;36654;45.042;38.994;2023-05-19T11:07:43;18.13;;;6.07;;
50683;SDS011;36654;45.042;38.994;2023-05-19T11:10:23;10.95;;;5.88;;
50683;SDS011;36654;45.042;38.994;2023-05-19T11:12:49;11.77;;;5.68;;
50683;SDS011;36654;45.042;38.994;2023-05-19T11:15:16;12.40;;;5.63;;
50683;SDS011;36654;45.042;38.994;2023-05-19T11:17:47;16.52;;;5.70;;
50683;SDS011;36654;45.042;38.994;2023-05-19T11:20:24;15.10;;;7.85;;
50683;SDS011;36654;45.042;38.994;2023-05-19T11:23:02;12.65;;;6.40;;
50683;SDS011;36654;45.042;38.994;2023-05-19T11:25:46;13.35;;;6.28;;
50683;SDS011;36654;45.042;38.994;2023-05-19T11:30:49;13.25;;;5.57;;
50683;SDS011;36654;45.042;38.994;2023-05-19T11:33:21;9.98;;;5.57;;
50683;SDS011;36654;45.042;38.994;2023-05-19T11:35:51;13.80;;;6.55;;
50683;SDS011;36654;45.042;38.994;2023-05-19T11:38:18;13.40;;;6.20;;
50683;SDS011;36654;45.042;38.994;2023-05-19T11:40:47;17.20;;;6.47;;
50683;SDS011;36654;45.042;38.994;2023-05-19T11:43:16;9.68;;;5.70;;
50683;SDS011;36654;45.042;38.994;2023-05-19T11:45:42;16.20;;;6.50;;
50683;SDS011;36654;45.042;38.994;2023-05-19T11:48:11;13.40;;;6.35;;
50683;SDS011;36654;45.042;38.994;2023-05-19T11:50:40;10.32;;;5.95;;
50683;SDS011;36654;45.042;38.994;2023-05-19T11:53:07;12.35;;;5.75;;
50683;SDS011;36654;45.042;38.994;2023-05-19T11:55:40;9.30;;;5.57;;
50683;SDS011;36654;45.042;38.994;2023-05-19T11:58:09;15.85;;;6.15;;
50683;SDS011;36654;45.042;38.994;2023-05-19T12:00:36;12.25;;;6.35;;
50683;SDS011;36654;45.042;38.994;2023-05-19T12:03:04;13.73;;;6.10;;
50683;SDS011;36654;45.042;38.994;2023-05-19T12:05:30;14.35;;;6.07;;
50683;SDS011;36654;45.042;38.994;2023-05-19T12:07:56;8.95;;;5.68;;
50683;SDS011;36654;45.042;38.994;2023-05-19T12:10:22;15.38;;;5.63;;
50683;SDS011;36654;45.042;38.994;2023-05-19T12:12:50;11.05;;;6.13;;
50683;SDS011;36654;45.042;38.994;2023-05-19T12:15:19;10.52;;;5.90;;
50683;SDS011;36654;45.042;38.994;2023-05-19T12:17:57;11.02;;;5.90;;
50683;SDS011;36654;45.042;38.994;2023-05-19T12:20:24;16.40;;;6.53;;
50683;SDS011;36654;45.042;38.994;2023-05-19T12:22:53;12.95;;;6.22;;
50683;SDS011;36654;45.042;38.994;2023-05-19T12:25:19;13.73;;;6.38;;
50683;SDS011;36654;45.042;38.994;2023-05-19T12:27:45;17.42;;;7.07;;
50683;SDS011;36654;45.042;38.994;2023-05-19T12:30:13;14.15;;;6.15;;
50683;SDS011;36654;45.042;38.994;2023-05-19T12:32:39;18.77;;;6.72;;
50683;SDS011;36654;45.042;38.994;2023-05-19T12:35:05;14.55;;;6.65;;
50683;SDS011;36654;45.042;38.994;2023-05-19T12:37:31;13.70;;;6.13;;
50683;SDS011;36654;45.042;38.994;2023-05-19T12:39:59;11.48;;;6.05;;
50683;SDS011;36654;45.042;38.994;2023-05-19T12:42:26;18.02;;;6.28;;
50683;SDS011;36654;45.042;38.994;2023-05-19T12:44:56;11.80;;;5.72;;
50683;SDS011;36654;45.042;38.994;2023-05-19T12:47:28;11.57;;;6.80;;
50683;SDS011;36654;45.042;38.994;2023-05-19T12:52:40;19.73;;;9.50;;
50683;SDS011;36654;45.042;38.994;2023-05-19T12:55:07;21.20;;;7.55;;
50683;SDS011;36654;45.042;38.994;2023-05-19T13:00:02;8.65;;;5.88;;
50683;SDS011;36654;45.042;38.994;2023-05-19T13:02:34;10.98;;;6.65;;
50683;SDS011;36654;45.042;38.994;2023-05-19T13:05:00;14.68;;;6.18;;
50683;SDS011;36654;45.042;38.994;2023-05-19T13:09:54;11.43;;;5.85;;
50683;SDS011;36654;45.042;38.994;2023-05-19T13:12:20;13.68;;;6.85;;
50683;SDS011;36654;45.042;38.994;2023-05-19T13:14:45;12.65;;;6.50;;
50683;SDS011;36654;45.042;38.994;2023-05-19T13:17:11;13.60;;;6.40;;
50683;SDS011;36654;45.042;38.994;2023-05-19T13:19:37;15.32;;;6.78;;
50683;SDS011;36654;45.042;38.994;2023-05-19T13:22:02;11.68;;;6.38;;
50683;SDS011;36654;45.042;38.994;2023-05-19T13:24:28;11.07;;;5.57;;
50683;SDS011;36654;45.042;38.994;2023-05-19T13:26:54;14.15;;;6.13;;
50683;SDS011;36654;45.042;38.994;2023-05-19T13:29:20;13.35;;;8.05;;
50683;SDS011;36654;45.042;38.994;2023-05-19T13:31:45;12.20;;;6.55;;
50683;SDS011;36654;45.042;38.994;2023-05-19T13:34:11;13.10;;;6.47;;
50683;SDS011;36654;45.042;38.994;2023-05-19T13:36:37;11.63;;;6.70;;
50683;SDS011;36654;45.042;38.994;2023-05-19T13:39:03;16.23;;;6.95;;
50683;SDS011;36654;45.042;38.994;2023-05-19T13:41:28;15.10;;;7.13;;
50683;SDS011;36654;45.042;38.994;2023-05-19T13:43:57;11.90;;;6.55;;
50683;SDS011;36654;45.042;38.994;2023-05-19T13:46:26;13.15;;;6.72;;
50683;SDS011;36654;45.042;38.994;2023-05-19T13:48:51;17.50;;;7.20;;
50683;SDS011;36654;45.042;38.994;2023-05-19T13:51:17;14.45;;;6.45;;
50683;SDS011;36654;45.042;38.994;2023-05-19T13:53:43;14.98;;;6.50;;
50683;SDS011;36654;45.042;38.994;2023-05-19T13:56:08;17.13;;;6.95;;
50683;SDS011;36654;45.042;38.994;2023-05-19T13:58:34;17.15;;;6.93;;
50683;SDS011;36654;45.042;38.994;2023-05-19T14:00:59;18.50;;;7.03;;
50683;SDS011;36654;45.042;38.994;2023-05-19T14:03:25;15.63;;;7.18;;
50683;SDS011;36654;45.042;38.994;2023-05-19T14:05:51;15.20;;;6.20;;
50683;SDS011;36654;45.042;38.994;2023-05-19T14:08:17;13.90;;;6.30;;
50683;SDS011;36654;45.042;38.994;2023-05-19T14:10:45;15.00;;;6.13;;
50683;SDS011;36654;45.042;38.994;2023-05-19T14:13:11;15.80;;;6.03;;
50683;SDS011;36654;45.042;38.994;2023-05-19T14:15:36;15.35;;;6.93;;
50683;SDS011;36654;45.042;38.994;2023-05-19T14:18:03;14.57;;;6.50;;
50683;SDS011;36654;45.042;38.994;2023-05-19T14:20:28;13.43;;;6.70;;
50683;SDS011;36654;45.042;38.994;2023-05-19T14:22:55;20.05;;;7.00;;
50683;SDS011;36654;45.042;38.994;2023-05-19T14:25:21;16.33;;;6.43;;
50683;SDS011;36654;45.042;38.994;2023-05-19T14:27:46;17.20;;;6.10;;
50683;SDS011;36654;45.042;38.994;2023-05-19T14:30:12;12.35;;;5.97;;
50683;SDS011;36654;45.042;38.994;2023-05-19T14:32:37;20.38;;;6.25;;
50683;SDS011;36654;45.042;38.994;2023-05-19T14:35:03;14.45;;;6.40;;
50683;SDS011;36654;45.042;38.994;2023-05-19T14:37:30;10.43;;;6.10;;
50683;SDS011;36654;45.042;38.994;2023-05-19T14:39:56;19.40;;;6.35;;
50683;SDS011;36654;45.042;38.994;2023-05-19T14:42:22;19.63;;;7.25;;
50683;SDS011;36654;45.042;38.994;2023-05-19T14:44:48;12.80;;;6.05;;
50683;SDS011;36654;45.042;38.994;2023-05-19T14:47:14;13.90;;;6.00;;
50683;SDS011;36654;45.042;38.994;2023-05-19T14:49:40;19.98;;;6.07;;
50683;SDS011;36654;45.042;38.994;2023-05-19T14:52:05;25.88;;;6.50;;
50683;SDS011;36654;45.042;38.994;2023-05-19T14:54:31;13.05;;;5.75;;
50683;SDS011;36654;45.042;38.994;2023-05-19T14:56:57;7.32;;;4.90;;
50683;SDS011;36654;45.042;38.994;2023-05-19T14:59:23;10.85;;;5.38;;
50683;SDS011;36654;45.042;38.994;2023-05-19T15:01:49;14.05;;;6.30;;